createdAt,value
2022-09-28T05:06:57.938Z,2.20
2022-09-28T05:09:01.257Z,2.30
2022-09-28T05:11:04.803Z,2.20
2022-09-28T05:13:06.617Z,2.10
2022-09-28T05:15:08.556Z,2.20
2022-09-28T05:17:10.603Z,1.87
2022-09-28T05:19:12.324Z,2.38
2022-09-28T05:21:15.371Z,2.17
2022-09-28T05:23:17.675Z,2.28
2022-09-28T05:25:20.664Z,2.13
2022-09-28T05:27:22.164Z,2.00
2022-09-28T05:29:23.681Z,2.65
2022-09-28T05:31:25.436Z,2.67
2022-09-28T05:33:27.261Z,3.77
2022-09-28T05:35:28.813Z,3.22
2022-09-28T05:37:30.303Z,2.45
2022-09-28T05:39:31.785Z,3.93
2022-09-28T05:41:34.737Z,3.35
2022-09-28T05:43:36.306Z,3.30
2022-09-28T05:45:40.646Z,3.00
2022-09-28T05:47:43.529Z,3.13
2022-09-28T05:49:45.060Z,3.10
2022-09-28T05:51:49.475Z,2.95
2022-09-28T05:53:50.985Z,2.65
2022-09-28T05:55:52.681Z,2.75
2022-09-28T05:57:57.973Z,3.00
2022-09-28T05:59:59.494Z,3.65
2022-09-28T06:02:01.166Z,3.83
2022-09-28T06:04:02.768Z,4.50
2022-09-28T06:06:04.513Z,4.73
2022-09-28T06:08:08.090Z,4.17
2022-09-28T06:10:09.576Z,3.90
2022-09-28T06:12:11.086Z,3.40
2022-09-28T06:14:14.055Z,3.27
2022-09-28T06:16:15.923Z,3.33
2022-09-28T06:18:17.498Z,3.15
2022-09-28T06:20:19.062Z,2.97
2022-09-28T06:22:20.599Z,3.23
2022-09-28T06:24:22.816Z,3.22
2022-09-28T06:26:24.555Z,3.30
2022-09-28T06:28:26.079Z,2.90
2022-09-28T06:30:31.304Z,3.30
2022-09-28T06:32:32.925Z,3.55
2022-09-28T06:34:34.604Z,2.90
2022-09-28T06:36:36.155Z,2.77
2022-09-28T06:38:37.686Z,2.83
2022-09-28T06:40:39.248Z,3.33
2022-09-28T06:42:40.862Z,2.87
2022-09-28T06:44:42.401Z,3.60
2022-09-28T06:46:45.374Z,3.30
2022-09-28T06:48:46.933Z,2.90
2022-09-28T06:50:50.252Z,3.30
2022-09-28T06:52:52.920Z,4.40
2022-09-28T06:54:54.409Z,4.40
2022-09-28T06:56:55.956Z,4.10
2022-09-28T06:58:57.472Z,5.10
2022-09-28T07:00:59.057Z,5.82
2022-09-28T07:03:03.270Z,6.43
2022-09-28T07:05:05.653Z,7.90
2022-09-28T07:07:08.521Z,5.77
2022-09-28T07:09:26.720Z,6.13
2022-09-28T07:11:36.669Z,4.65
2022-09-28T07:13:53.436Z,4.63
2022-09-28T07:15:55.672Z,4.30
2022-09-28T07:18:01.856Z,5.47
2022-09-28T07:20:17.247Z,3.97
2022-09-28T07:22:27.426Z,5.57
2022-09-28T07:24:40.356Z,4.97
2022-09-28T07:26:42.289Z,3.50
2022-09-28T07:28:43.814Z,4.17
2022-09-28T07:30:45.400Z,3.73
2022-09-28T07:32:47.183Z,2.60
2022-09-28T07:34:48.861Z,2.90
2022-09-28T07:36:51.896Z,2.83
2022-09-28T07:38:53.982Z,2.73
2022-09-28T07:40:56.809Z,3.10
2022-09-28T07:43:04.326Z,3.60
2022-09-28T07:45:06.867Z,2.93
2022-09-28T07:47:08.686Z,3.20
2022-09-28T07:49:12.394Z,3.50
2022-09-28T07:51:14.168Z,3.47
2022-09-28T07:53:17.809Z,7.47
2022-09-28T07:55:19.449Z,10.80
2022-09-28T07:57:23.288Z,5.37
2022-09-28T07:59:25.180Z,4.00
2022-09-28T08:01:27.023Z,4.10
2022-09-28T08:03:28.620Z,3.50
2022-09-28T08:05:31.112Z,2.50
2022-09-28T08:07:32.691Z,3.00
2022-09-28T08:09:35.900Z,2.83
2022-09-28T08:11:37.887Z,2.40
2022-09-28T08:13:40.091Z,2.60
2022-09-28T08:15:41.694Z,2.80
2022-09-28T08:17:47.346Z,2.40
2022-09-28T08:19:49.498Z,2.80
2022-09-28T08:21:53.569Z,3.57
2022-09-28T08:23:55.147Z,2.70
2022-09-28T08:25:58.510Z,2.83
2022-09-28T08:28:00.081Z,3.40
2022-09-28T08:30:01.847Z,2.73
2022-09-28T08:32:06.552Z,3.17
2022-09-28T08:34:08.168Z,3.57
2022-09-28T08:36:12.088Z,3.60
2022-09-28T08:38:13.774Z,2.33
2022-09-28T08:40:19.794Z,2.60
2022-09-28T08:42:34.920Z,2.30
2022-09-28T08:44:41.438Z,2.80
2022-09-28T08:46:47.926Z,2.73
2022-09-28T08:49:20.559Z,2.30
2022-09-28T08:51:19.731Z,2.43
2022-09-28T08:53:35.752Z,3.40
2022-09-28T08:55:39.569Z,2.90
2022-09-28T08:57:50.391Z,2.83
2022-09-28T08:59:54.603Z,2.67
2022-09-28T09:02:00.251Z,2.40
2022-09-28T09:04:05.131Z,2.50
2022-09-28T09:06:23.186Z,3.37
2022-09-28T09:08:37.265Z,2.87
2022-09-28T09:10:49.572Z,2.87
2022-09-28T09:13:05.873Z,2.47
2022-09-28T09:15:33.680Z,3.07
2022-09-28T09:17:47.599Z,2.10
2022-09-28T09:19:53.618Z,1.90
2022-09-28T09:21:59.940Z,2.03
2022-09-28T09:24:10.689Z,2.77
2022-09-28T09:26:22.215Z,2.57
2022-09-28T09:28:58.179Z,2.40
2022-09-28T09:31:11.674Z,2.93
2022-09-28T09:33:35.784Z,2.03
2022-09-28T09:36:16.294Z,2.50
2022-09-28T09:38:32.804Z,2.80
2022-09-28T09:40:49.718Z,2.23
2022-09-28T09:43:04.181Z,1.80
2022-09-28T09:45:23.859Z,2.00
2022-09-28T09:47:31.670Z,1.73
2022-09-28T09:49:38.590Z,1.90
2022-09-28T09:51:54.669Z,1.30
2022-09-28T09:54:09.712Z,1.93
2022-09-28T09:56:16.046Z,2.50
2022-09-28T09:58:20.987Z,2.40
2022-09-28T10:00:23.886Z,2.13
2022-09-28T10:02:28.536Z,1.90
2022-09-28T10:04:35.878Z,1.77
2022-09-28T10:06:39.025Z,1.70
2022-09-28T10:08:44.187Z,1.70
2022-09-28T10:10:51.393Z,1.47
2022-09-28T10:12:53.685Z,1.70
2022-09-28T10:14:55.367Z,1.20
2022-09-28T10:16:58.790Z,1.60
2022-09-28T10:19:00.840Z,1.60
2022-09-28T10:21:02.851Z,1.20
2022-09-28T10:23:09.150Z,1.97
2022-09-28T10:25:12.764Z,2.13
2022-09-28T10:27:18.004Z,2.10
2022-09-28T10:29:21.363Z,1.93
2022-09-28T10:31:40.818Z,5.70
2022-09-28T10:33:43.790Z,7.00
2022-09-28T10:35:45.355Z,2.70
2022-09-28T10:37:49.961Z,3.27
2022-09-28T10:39:53.925Z,4.50
2022-09-28T10:41:55.713Z,2.60
2022-09-28T10:44:01.288Z,1.80
2022-09-28T10:46:06.724Z,1.50
2022-09-28T10:48:17.813Z,1.90
2022-09-28T10:50:23.694Z,2.23
2022-09-28T10:52:35.668Z,1.47
2022-09-28T10:54:37.333Z,1.70
2022-09-28T10:56:40.431Z,1.87
2022-09-28T10:58:42.171Z,1.70
2022-09-28T11:00:44.928Z,1.73
2022-09-28T11:02:46.724Z,1.30
2022-09-28T11:04:56.562Z,1.63
2022-09-28T11:07:01.895Z,1.53
2022-09-28T11:09:07.767Z,2.00
2022-09-28T11:14:08.688Z,1.80
2022-09-28T11:16:21.171Z,1.87
2022-09-28T11:18:28.674Z,1.80
2022-09-28T11:20:33.486Z,1.57
2022-09-28T11:22:39.656Z,2.23
2022-09-28T11:24:41.220Z,1.90
2022-09-28T11:26:45.367Z,1.60
2022-09-28T11:28:51.849Z,1.83
2022-09-28T11:30:54.450Z,1.70
2022-09-28T11:33:01.920Z,2.00
2022-09-28T11:35:03.785Z,1.70
2022-09-28T11:37:26.574Z,1.90
2022-09-28T11:39:38.809Z,1.83
2022-09-28T11:41:53.401Z,1.63
2022-09-28T11:44:13.204Z,3.23
2022-09-28T11:46:24.688Z,1.67
2022-09-28T11:48:34.029Z,2.30
2022-09-28T11:50:45.581Z,1.90
2022-09-28T11:52:53.460Z,1.57
2022-09-28T11:55:01.316Z,1.40
2022-09-28T11:57:06.290Z,1.50
2022-09-28T11:59:14.992Z,1.77
2022-09-28T12:01:23.118Z,1.60
2022-09-28T12:03:31.019Z,1.90
2022-09-28T12:05:38.457Z,1.30
2022-09-28T12:07:44.454Z,1.50
2022-09-28T12:09:54.349Z,1.27
2022-09-28T12:12:02.338Z,1.73
2022-09-28T12:14:10.235Z,1.30
2022-09-28T12:16:38.930Z,1.67
2022-09-28T12:18:44.667Z,1.80
2022-09-28T12:20:51.671Z,1.50
2022-09-28T12:23:05.211Z,1.63
2022-09-28T12:25:13.171Z,1.47
2022-09-28T12:27:21.432Z,1.10
2022-09-28T12:29:29.206Z,1.30
2022-09-28T12:31:36.903Z,1.47
2022-09-28T12:33:39.748Z,1.40
2022-09-28T12:35:59.069Z,1.50
2022-09-28T12:38:20.800Z,1.10
2022-09-28T12:40:41.404Z,1.20
2022-09-28T12:43:02.960Z,1.50
2022-09-28T12:45:16.681Z,1.50
2022-09-28T12:47:35.989Z,1.47
2022-09-28T12:50:37.016Z,1.30
2022-09-28T12:52:29.010Z,1.40
2022-09-28T12:54:50.007Z,1.17
2022-09-28T12:57:04.560Z,1.53
2022-09-28T12:59:18.899Z,2.30
2022-09-28T13:01:46.388Z,2.03
2022-09-28T13:04:04.902Z,2.30
2022-09-28T13:06:37.832Z,2.10
2022-09-28T13:08:49.431Z,2.33
2022-09-28T13:11:07.879Z,1.87
2022-09-28T13:13:26.026Z,2.50
2022-09-28T13:15:39.542Z,1.47
2022-09-28T13:17:56.604Z,1.90
2022-09-28T13:20:02.761Z,3.30
2022-09-28T13:22:21.124Z,1.70
2022-09-28T13:24:32.558Z,1.93
2022-09-28T13:26:37.805Z,1.97
2022-09-28T13:28:40.679Z,1.83
2022-09-28T13:30:44.917Z,1.80
2022-09-28T13:32:48.947Z,1.93
2022-09-28T13:34:50.728Z,1.70
2022-09-28T13:37:22.279Z,2.00
2022-09-28T13:39:46.490Z,1.90
2022-09-28T13:41:48.725Z,1.53
2022-09-28T13:44:11.037Z,1.60
2022-09-28T13:46:25.761Z,1.70
2022-09-28T13:48:39.827Z,2.33
2022-09-28T13:51:04.817Z,1.60
2022-09-28T13:53:18.313Z,2.30
2022-09-28T13:55:32.871Z,2.20
2022-09-28T13:57:48.639Z,2.10
2022-09-28T14:00:02.327Z,2.30
2022-09-28T14:02:21.934Z,1.53
2022-09-28T14:04:25.395Z,1.60
2022-09-28T14:06:28.386Z,1.50
2022-09-28T14:08:37.517Z,2.63
2022-09-28T14:10:50.027Z,1.87
2022-09-28T14:12:51.962Z,1.93
2022-09-28T14:14:53.547Z,1.80
2022-09-28T14:17:31.462Z,2.30
2022-09-28T14:19:34.921Z,1.80
2022-09-28T14:21:50.986Z,1.50
2022-09-28T14:24:19.028Z,1.77
2022-09-28T14:26:47.260Z,2.20
2022-09-28T14:29:02.031Z,1.40
2022-09-28T14:31:08.752Z,1.50
2022-09-28T14:33:22.535Z,1.63
2022-09-28T14:35:31.615Z,2.30
2022-09-28T14:37:36.903Z,1.83
2022-09-28T14:39:43.705Z,1.50
2022-09-28T14:41:45.867Z,1.40
2022-09-28T14:44:02.852Z,1.27
2022-09-28T14:46:31.389Z,1.70
2022-09-28T14:48:46.737Z,1.60
2022-09-28T14:50:49.750Z,1.47
2022-09-28T14:52:54.216Z,1.73
2022-09-28T14:54:57.104Z,1.73
2022-09-28T14:57:07.713Z,2.30
2022-09-28T14:59:16.505Z,1.73
2022-09-28T15:01:21.100Z,1.83
2022-09-28T15:03:24.225Z,1.70
2022-09-28T15:05:29.876Z,1.73
2022-09-28T15:07:47.764Z,1.90
2022-09-28T15:09:51.323Z,1.47
2022-09-28T15:11:53.286Z,1.33
2022-09-28T15:14:06.023Z,1.30
2022-09-28T15:16:10.710Z,1.60
2022-09-28T15:18:40.023Z,1.83
2022-09-28T15:20:45.532Z,1.50
2022-09-28T15:22:51.231Z,1.30
2022-09-28T15:25:02.212Z,1.77
2022-09-28T15:27:14.886Z,1.53
2022-09-28T15:29:18.045Z,1.67
2022-09-28T15:31:22.019Z,1.53
2022-09-28T15:33:25.261Z,1.80
2022-09-28T15:35:27.914Z,1.70
2022-09-28T15:37:37.402Z,1.87
2022-09-28T15:39:43.369Z,1.47
2022-09-28T15:41:48.292Z,1.40
2022-09-28T15:44:06.271Z,1.90
2022-09-28T15:46:13.492Z,1.50
2022-09-28T15:48:20.131Z,1.60
2022-09-28T15:50:26.656Z,1.50
2022-09-28T15:52:34.336Z,1.87
2022-09-28T15:54:42.066Z,1.50
2022-09-28T15:56:53.805Z,1.90
2022-09-28T15:59:09.906Z,1.77
2022-09-28T16:01:25.389Z,2.00
2022-09-28T16:03:29.049Z,2.00
2022-09-28T16:05:40.792Z,1.93
2022-09-28T16:07:56.059Z,2.23
2022-09-28T16:10:04.565Z,1.40
2022-09-28T16:12:10.885Z,1.67
2022-09-28T16:14:19.415Z,1.70
2022-09-28T16:16:28.263Z,2.10
2022-09-28T16:18:31.356Z,2.23
2022-09-28T16:20:35.576Z,2.03
2022-09-28T16:22:37.722Z,1.73
2022-09-28T16:24:39.642Z,1.60
2022-09-28T16:26:41.300Z,1.20
2022-09-28T16:28:49.610Z,1.50
2022-09-28T16:31:00.981Z,2.40
2022-09-28T16:33:05.689Z,3.43
2022-09-28T16:35:23.468Z,2.20
2022-09-28T16:37:30.672Z,3.90
2022-09-28T16:39:32.380Z,2.50
2022-09-28T16:41:33.992Z,16.17
2022-09-28T16:43:36.079Z,11.10
2022-09-28T16:45:39.285Z,3.87
2022-09-28T16:47:40.896Z,3.40
2022-09-28T16:49:42.475Z,2.00
2022-09-28T16:51:45.116Z,2.33
2022-09-28T16:53:50.324Z,1.83
2022-09-28T16:55:51.878Z,1.77
2022-09-28T16:57:53.975Z,1.50
2022-09-28T16:59:55.483Z,2.10
2022-09-28T17:01:59.070Z,2.33
2022-09-28T17:04:01.287Z,2.30
2022-09-28T17:06:04.184Z,5.43
2022-09-28T17:08:05.995Z,3.27
2022-09-28T17:10:16.497Z,4.17
2022-09-28T17:12:20.680Z,4.80
2022-09-28T17:14:23.496Z,3.60
2022-09-28T17:16:50.979Z,4.77
2022-09-28T17:18:51.422Z,4.57
2022-09-28T17:20:55.370Z,4.80
2022-09-28T17:22:57.066Z,4.00
2022-09-28T17:24:58.649Z,3.67
2022-09-28T17:27:00.411Z,3.47
2022-09-28T17:29:02.264Z,3.83
2022-09-28T17:31:04.591Z,3.10
2022-09-28T17:33:06.302Z,3.47
2022-09-28T17:35:23.605Z,3.27
2022-09-28T17:37:26.622Z,3.20
2022-09-28T17:39:28.226Z,3.30
2022-09-28T17:41:29.893Z,3.13
2022-09-28T17:43:31.757Z,3.30
2022-09-28T17:45:36.722Z,4.50
2022-09-28T17:47:38.331Z,4.63
2022-09-28T17:49:45.932Z,6.17
2022-09-28T17:51:49.496Z,3.87
2022-09-28T17:53:51.137Z,4.37
2022-09-28T17:55:52.671Z,4.37
2022-09-28T17:57:56.218Z,3.20
2022-09-28T17:59:58.116Z,3.27
2022-09-28T18:02:02.629Z,3.23
2022-09-28T18:04:06.036Z,3.50
2022-09-28T18:06:12.878Z,3.27
2022-09-28T18:08:19.578Z,2.90
2022-09-28T18:10:24.217Z,2.70
2022-09-28T18:12:25.925Z,5.43
2022-09-28T18:14:27.622Z,18.07
2022-09-28T18:16:29.265Z,5.07
2022-09-28T18:18:31.773Z,3.03
2022-09-28T18:20:34.815Z,3.53
2022-09-28T18:22:36.957Z,6.40
2022-09-28T18:24:40.219Z,12.63
2022-09-28T18:26:42.386Z,11.97
2022-09-28T18:28:43.998Z,9.37
2022-09-28T18:30:45.752Z,7.63
2022-09-28T18:32:47.512Z,4.43
2022-09-28T18:34:49.314Z,5.30
2022-09-28T18:36:51.057Z,3.43
2022-09-28T18:38:55.735Z,3.37
2022-09-28T18:41:07.195Z,2.80
2022-09-28T18:43:08.936Z,2.67
2022-09-28T18:45:11.400Z,10.90
2022-09-28T18:47:13.587Z,6.40
2022-09-28T18:49:15.399Z,4.80
2022-09-28T18:51:17.142Z,3.63
2022-09-28T18:53:18.794Z,3.17
2022-09-28T18:55:20.775Z,3.93
2022-09-28T18:57:23.754Z,4.53
2022-09-28T18:59:25.926Z,3.70
2022-09-28T19:01:30.460Z,4.53
2022-09-28T19:03:32.671Z,3.57
2022-09-28T19:05:34.311Z,3.27
2022-09-28T19:07:36.143Z,3.27
2022-09-28T19:09:37.938Z,3.40
2022-09-28T19:11:39.848Z,3.50
2022-09-28T19:13:43.789Z,3.77
2022-09-28T19:15:45.531Z,3.30
2022-09-28T19:17:47.232Z,3.83
2022-09-28T19:19:48.979Z,3.30
2022-09-28T19:21:51.122Z,3.20
2022-09-28T19:23:53.004Z,3.00
2022-09-28T19:25:54.653Z,3.57
2022-09-28T19:27:56.247Z,3.13
2022-09-28T19:29:59.309Z,2.93
2022-09-28T19:32:01.408Z,3.83
2022-09-28T19:34:03.569Z,3.60
2022-09-28T19:36:07.920Z,3.80
2022-09-28T19:38:09.611Z,2.77
2022-09-28T19:40:11.170Z,3.13
2022-09-28T19:42:13.054Z,3.20
2022-09-28T19:44:17.460Z,2.80
2022-09-28T19:46:20.535Z,3.60
2022-09-28T19:48:26.033Z,3.50
2022-09-28T19:50:27.631Z,3.30
2022-09-28T19:52:29.409Z,4.00
2022-09-28T19:54:35.555Z,3.40
2022-09-28T19:56:38.045Z,4.47
2022-09-28T19:58:39.667Z,5.13
2022-09-28T20:00:41.176Z,3.90
2022-09-28T20:02:44.412Z,4.00
2022-09-28T20:04:46.592Z,3.97
2022-09-28T20:06:48.266Z,4.30
2022-09-28T20:08:50.635Z,4.30
2022-09-28T20:10:53.904Z,4.20
2022-09-28T20:12:55.632Z,3.97
2022-09-28T20:14:57.761Z,4.03
2022-09-28T20:16:59.524Z,4.83
2022-09-28T20:19:02.874Z,4.23
2022-09-28T20:21:06.558Z,3.93
2022-09-28T20:23:08.225Z,3.90
2022-09-28T20:25:10.294Z,3.77
2022-09-28T20:27:11.865Z,4.13
2022-09-28T20:29:13.617Z,3.40
2022-09-28T20:31:17.485Z,4.17
2022-09-28T20:33:28.592Z,4.00
2022-09-28T20:35:34.240Z,4.43
2022-09-28T20:37:35.802Z,4.20
2022-09-28T20:39:40.345Z,3.80
2022-09-28T20:41:44.314Z,3.60
2022-09-28T20:43:46.546Z,4.23
2022-09-28T20:45:49.655Z,4.13
2022-09-28T20:47:54.479Z,4.70
2022-09-28T20:49:56.029Z,4.10
2022-09-28T20:51:59.011Z,4.23
2022-09-28T20:54:01.057Z,4.60
2022-09-28T20:56:04.404Z,4.00
2022-09-28T20:58:06.010Z,3.93
2022-09-28T21:00:08.975Z,3.90
2022-09-28T21:02:11.955Z,3.60
2022-09-28T21:04:13.603Z,4.33
2022-09-28T21:06:16.235Z,3.72
2022-09-28T21:08:20.931Z,3.47
2022-09-28T21:10:22.531Z,3.50
2022-09-28T21:12:24.188Z,4.70
2022-09-28T21:14:26.522Z,4.07
2022-09-28T21:16:29.988Z,4.33
2022-09-28T21:18:31.593Z,3.50
2022-09-28T21:20:33.131Z,3.70
2022-09-28T21:22:34.796Z,3.70
2022-09-28T21:24:37.901Z,3.90
2022-09-28T21:26:39.504Z,4.20
2022-09-28T21:28:44.308Z,4.30
2022-09-28T21:30:46.101Z,3.83
2022-09-28T21:32:47.700Z,4.10
2022-09-28T21:34:49.286Z,4.45
2022-09-28T21:36:51.323Z,4.20
2022-09-28T21:38:53.341Z,3.90
2022-09-28T21:40:57.069Z,4.13
2022-09-28T21:42:58.772Z,4.40
2022-09-28T21:45:03.921Z,5.13
2022-09-28T21:47:05.814Z,4.50
2022-09-28T21:49:08.105Z,4.47
2022-09-28T21:51:13.943Z,3.67
2022-09-28T21:53:15.492Z,4.20
2022-09-28T21:55:17.235Z,4.60
2022-09-28T21:57:20.775Z,4.20
2022-09-28T21:59:22.513Z,4.47
2022-09-28T22:01:25.181Z,4.32
2022-09-28T22:03:27.218Z,4.83
2022-09-28T22:05:28.959Z,4.30
2022-09-28T22:07:30.540Z,4.35
2022-09-28T22:09:32.084Z,4.70
2022-09-28T22:11:33.889Z,4.63
2022-09-28T22:13:40.769Z,4.10
2022-09-28T22:15:42.274Z,4.30
2022-09-28T22:17:43.895Z,4.70
2022-09-28T22:19:45.408Z,4.70
2022-09-28T22:21:46.948Z,4.30
2022-09-28T22:23:48.917Z,4.33
2022-09-28T22:25:51.522Z,4.40
2022-09-28T22:27:53.101Z,5.27
2022-09-28T22:29:55.961Z,4.60
2022-09-28T22:31:57.653Z,4.50
2022-09-28T22:33:59.420Z,4.30
2022-09-28T22:36:01.498Z,4.73
2022-09-28T22:38:03.117Z,3.83
2022-09-28T22:40:05.630Z,4.13
2022-09-28T22:42:07.640Z,4.77
2022-09-28T22:44:09.315Z,4.23
2022-09-28T22:46:14.581Z,4.60
2022-09-28T22:48:16.250Z,4.20
2022-09-28T22:50:17.782Z,4.50
2022-09-28T22:52:19.288Z,4.47
2022-09-28T22:54:20.820Z,4.17
2022-09-28T22:56:22.480Z,4.00
2022-09-28T22:58:24.222Z,4.53
2022-09-28T23:00:25.748Z,4.67
2022-09-28T23:02:28.583Z,4.40
2022-09-28T23:04:30.062Z,4.50
2022-09-28T23:06:31.628Z,5.00
2022-09-28T23:08:33.787Z,4.47
2022-09-28T23:10:35.343Z,4.80
2022-09-28T23:12:36.942Z,4.88
2022-09-28T23:14:38.406Z,6.07
2022-09-28T23:16:40.087Z,5.78
2022-09-28T23:18:43.065Z,5.30
2022-09-28T23:20:44.713Z,6.60
2022-09-28T23:22:46.466Z,6.77
2022-09-28T23:24:48.022Z,6.63
2022-09-28T23:26:49.508Z,5.83
2022-09-28T23:28:52.463Z,6.13
2022-09-28T23:30:54.194Z,6.60
2022-09-28T23:32:55.703Z,5.77
2022-09-28T23:34:58.582Z,8.10
2022-09-28T23:37:00.087Z,6.73
2022-09-28T23:39:01.804Z,6.23
2022-09-28T23:41:03.339Z,5.80
2022-09-28T23:43:04.870Z,6.57
2022-09-28T23:45:07.392Z,5.87
2022-09-28T23:47:08.861Z,6.27
2022-09-28T23:49:10.501Z,6.50
2022-09-28T23:51:15.938Z,6.20
2022-09-28T23:53:17.556Z,5.20
2022-09-28T23:55:19.113Z,5.63
2022-09-28T23:57:20.656Z,5.85
2022-09-28T23:59:22.169Z,6.47
